Airport ID:KAUN
Update Time (UTC):29/11/2022 15:28
Wind Speed (Knots):5
Wind Direction (Magnetic):70
Temperature (°C):2
Dew Point (°C):-1
Humidity (%):75
Altimeter (inHg):29.98
Density Altitude (Feet):
Visibility:10+
Clouds (Hundreds of feet):CLR
Present Weather:
METAR:METAR KAUN 291525Z AUTO 08005KT 10SM CLR 02/M01 A2998 RMK A01

The data displayed is for advisory purposes only and is not to be used for flight planning or operations.